Time;durP1;ratioP1;P1;durP2;ratioP2;P2;SDS_P1;SDS_P2;PMS_P1;PMS_P2;Temp;Humidity;BMP_temperature;BMP_pressure;BME280_temperature;BME280_humidity;BME280_pressure;Samples;Min_cycle;Max_cycle;Signal;HPM_P1;HPM_P2
2021/09/18 00:02:26;;;;;;;11.40;6.47;;;;;;;3.13;83.42;99705.19;5094319;28;20044;-62
2021/09/18 00:04:52;;;;;;;14.23;6.90;;;;;;;3.08;83.11;99694.44;5092932;28;20040;-63
2021/09/18 00:07:18;;;;;;;12.32;5.97;;;;;;;3.05;83.58;99703.47;5094181;28;20413;-63
2021/09/18 00:09:43;;;;;;;15.68;6.03;;;;;;;3.06;83.73;99704.28;5094251;28;20035;-62
2021/09/18 00:12:09;;;;;;;10.07;6.82;;;;;;;3.03;83.81;99700.25;5094002;28;20444;-62
2021/09/18 00:14:39;;;;;;;13.18;6.95;;;;;;;2.99;83.58;99703.38;5092734;28;20139;-62
2021/09/18 00:17:06;;;;;;;10.80;6.03;;;;;;;2.94;84.15;99703.91;5092698;28;20493;-61
2021/09/18 00:19:33;;;;;;;12.63;6.35;;;;;;;2.95;84.48;99703.75;5092665;28;20055;-61
2021/09/18 00:21:59;;;;;;;11.85;6.22;;;;;;;2.93;84.06;99705.72;5059159;28;20048;-62
2021/09/18 00:24:24;;;;;;;11.57;6.28;;;;;;;2.88;84.06;99705.47;5074928;28;20036;-63
2021/09/18 00:27:05;;;;;;;11.50;5.40;;;;;;;2.85;84.38;99705.81;5092800;28;20091;-62
2021/09/18 00:29:31;;;;;;;11.35;5.60;;;;;;;2.82;84.06;99703.53;5058894;28;20040;-62
2021/09/18 00:32:02;;;;;;;13.40;4.90;;;;;;;2.80;84.61;99697.69;5093781;28;20055;-62
2021/09/18 00:34:28;;;;;;;12.32;6.10;;;;;;;2.78;84.24;99709.34;5093438;28;20052;-63
2021/09/18 00:36:54;;;;;;;8.85;4.82;;;;;;;2.78;84.32;99704.91;5075471;28;20043;-63
2021/09/18 00:39:19;;;;;;;12.05;5.13;;;;;;;2.79;84.59;99714.38;5093580;28;20043;-63
2021/09/18 00:41:45;;;;;;;9.13;5.32;;;;;;;2.79;84.14;99706.53;5093820;28;20064;-66
2021/09/18 00:44:17;;;;;;;11.82;5.90;;;;;;;2.80;84.39;99702.13;5093538;28;20600;-63
2021/09/18 00:46:45;;;;;;;8.63;4.78;;;;;;;2.80;84.49;99713.41;5093510;28;20048;-63
2021/09/18 00:49:11;;;;;;;9.18;4.85;;;;;;;2.78;84.39;99702.28;5093133;28;20165;-61
2021/09/18 00:51:37;;;;;;;10.30;5.78;;;;;;;2.78;84.48;99710.16;5091379;28;20138;-61
2021/09/18 00:54:03;;;;;;;8.60;5.05;;;;;;;2.76;84.57;99713.94;5093144;28;20070;-62
2021/09/18 00:56:29;;;;;;;10.05;5.20;;;;;;;2.77;84.18;99715.56;5092210;28;20051;-63
2021/09/18 00:58:55;;;;;;;8.30;4.65;;;;;;;2.73;84.35;99713.28;5091983;28;20044;-63
2021/09/18 01:01:21;;;;;;;10.63;4.63;;;;;;;2.72;84.17;99713.47;5093564;28;20043;-62
2021/09/18 01:03:59;;;;;;;10.38;4.80;;;;;;;2.70;84.56;99708.41;5092121;28;20056;-61
2021/09/18 01:06:26;;;;;;;16.05;5.18;;;;;;;2.71;84.63;99710.06;5093532;28;20040;-62
2021/09/18 01:08:53;;;;;;;9.52;5.43;;;;;;;2.72;84.63;99716.91;5092077;28;20050;-64
2021/09/18 01:11:19;;;;;;;11.05;5.00;;;;;;;2.72;85.06;99716.09;5093412;28;20127;-63
2021/09/18 01:13:45;;;;;;;8.57;4.90;;;;;;;2.67;84.55;99719.22;5092904;28;20565;-62
2021/09/18 01:16:10;;;;;;;9.40;5.00;;;;;;;2.64;84.62;99718.78;5093231;28;20477;-61
2021/09/18 01:18:36;;;;;;;9.48;4.97;;;;;;;2.63;84.79;99723.22;5093100;28;20122;-62
2021/09/18 01:21:02;;;;;;;10.68;5.90;;;;;;;2.61;84.70;99725.19;5091726;28;20036;-62
2021/09/18 01:23:28;;;;;;;11.35;5.07;;;;;;;2.62;84.67;99721.59;5092724;28;20078;-63
2021/09/18 01:25:54;;;;;;;10.30;5.35;;;;;;;2.62;84.70;99720.78;5093063;28;20481;-63
2021/09/18 01:28:22;;;;;;;8.13;4.72;;;;;;;2.61;84.54;99724.38;5092951;28;20429;-62
2021/09/18 01:30:48;;;;;;;8.82;5.63;;;;;;;2.62;84.21;99726.03;5091455;28;20040;-63
2021/09/18 01:33:14;;;;;;;11.02;5.68;;;;;;;2.62;84.94;99732.06;5091255;28;20044;-62
2021/09/18 01:35:40;;;;;;;9.05;5.35;;;;;;;2.62;84.75;99733.88;5092100;28;20055;-62
2021/09/18 01:38:07;;;;;;;10.20;5.78;;;;;;;2.56;84.59;99730.16;5092100;28;20075;-62
2021/09/18 01:40:38;;;;;;;11.80;5.85;;;;;;;2.54;84.80;99734.75;5092634;28;20044;-61
2021/09/18 01:43:05;;;;;;;10.73;5.93;;;;;;;2.50;84.85;99725.63;5091410;28;20391;-61
2021/09/18 01:45:31;;;;;;;14.73;7.03;;;;;;;2.52;84.94;99733.28;5092565;28;20036;-61
2021/09/18 01:48:00;;;;;;;11.65;6.00;;;;;;;2.51;84.78;99729.88;5074102;28;20138;-62
2021/09/18 01:50:26;;;;;;;13.30;5.95;;;;;;;2.54;84.47;99729.50;5092292;28;20073;-62
2021/09/18 01:52:53;;;;;;;13.52;6.90;;;;;;;2.52;84.65;99736.72;5092547;28;20360;-63
2021/09/18 01:55:19;;;;;;;10.82;6.88;;;;;;;2.53;84.50;99727.06;5092309;28;20040;-62
2021/09/18 01:57:56;;;;;;;11.40;6.30;;;;;;;2.53;84.50;99734.91;5090955;28;20409;-62
2021/09/18 02:00:23;;;;;;;20.08;6.88;;;;;;;2.51;84.66;99737.72;5091000;28;20044;-62
2021/09/18 02:02:49;;;;;;;12.63;6.53;;;;;;;2.51;84.69;99737.72;5040768;28;20087;-61
2021/09/18 02:05:17;;;;;;;12.38;6.80;;;;;;;2.50;84.41;99733.47;5092292;28;20173;-62
2021/09/18 02:07:43;;;;;;;11.88;6.47;;;;;;;2.46;84.46;99730.38;5090536;28;20052;-63
2021/09/18 02:10:16;;;;;;;11.60;6.97;;;;;;;2.43;84.30;99730.72;5090670;28;20051;-63
2021/09/18 02:12:42;;;;;;;12.13;6.75;;;;;;;2.40;84.13;99736.31;5091733;28;20048;-62
2021/09/18 02:15:09;;;;;;;12.40;6.55;;;;;;;2.37;84.20;99736.66;5090562;28;20035;-63
2021/09/18 02:17:35;;;;;;;11.43;6.38;;;;;;;2.35;84.26;99737.81;5090655;28;20416;-62
2021/09/18 02:20:02;;;;;;;10.75;6.63;;;;;;;2.27;83.94;99733.50;5091871;28;20626;-62
2021/09/18 02:22:28;;;;;;;10.68;5.82;;;;;;;2.25;84.40;99738.06;5090401;28;20043;-61
2021/09/18 02:24:53;;;;;;;13.13;5.82;;;;;;;2.23;84.49;99745.28;5091693;28;20469;-60
2021/09/18 02:27:19;;;;;;;10.93;6.07;;;;;;;2.17;84.42;99743.34;5091578;28;20173;-63
2021/09/18 02:29:45;;;;;;;11.20;6.60;;;;;;;2.16;84.38;99737.31;5091707;28;20040;-61
2021/09/18 02:32:11;;;;;;;11.65;6.07;;;;;;;2.14;84.87;99748.94;5090377;28;20070;-62
2021/09/18 02:34:37;;;;;;;13.07;6.07;;;;;;;2.15;85.08;99747.97;5090058;28;20048;-62
2021/09/18 02:37:03;;;;;;;12.02;5.43;;;;;;;2.17;85.71;99744.16;5090297;28;20083;-62
2021/09/18 02:39:29;;;;;;;11.32;5.88;;;;;;;2.18;85.22;99751.03;5090292;28;20044;-62
2021/09/18 02:41:54;;;;;;;10.43;6.13;;;;;;;2.24;85.50;99765.22;5090245;28;20132;-62
2021/09/18 02:44:20;;;;;;;11.50;6.78;;;;;;;2.27;85.55;99754.41;5091433;28;20039;-62
2021/09/18 02:46:46;;;;;;;11.20;6.28;;;;;;;2.23;85.09;99759.16;5073632;28;20082;-61
2021/09/18 02:49:12;;;;;;;11.43;5.82;;;;;;;2.30;85.46;99763.72;5091143;28;20048;-60
2021/09/18 02:51:38;;;;;;;12.45;6.10;;;;;;;2.24;85.33;99765.22;5091259;28;20043;-61
2021/09/18 02:54:04;;;;;;;14.48;6.50;;;;;;;2.25;85.47;99765.03;5090181;28;20142;-62
2021/09/18 02:56:30;;;;;;;12.60;6.15;;;;;;;2.28;85.51;99774.34;5090297;28;20036;-62
2021/09/18 02:58:55;;;;;;;9.98;5.65;;;;;;;2.31;85.31;99771.38;5090139;28;20036;-60
2021/09/18 03:01:21;;;;;;;11.13;5.85;;;;;;;2.26;84.90;99771.06;5091737;28;20067;-62
2021/09/18 03:03:47;;;;;;;11.68;5.22;;;;;;;2.26;85.28;99769.31;5090285;28;20071;-62
2021/09/18 03:06:13;;;;;;;13.68;6.15;;;;;;;2.28;85.05;99771.72;5091726;28;20051;-62
2021/09/18 03:08:39;;;;;;;11.60;5.38;;;;;;;2.25;84.68;99774.69;5091236;28;20524;-63
2021/09/18 03:11:05;;;;;;;8.32;5.40;;;;;;;2.33;84.86;99772.03;5073245;28;20043;-62
2021/09/18 03:13:31;;;;;;;8.52;5.35;;;;;;;2.39;84.40;99779.19;5089964;28;20449;-62
2021/09/18 03:15:56;;;;;;;9.00;5.25;;;;;;;2.45;84.40;99777.66;5091501;28;20046;-62
2021/09/18 03:18:22;;;;;;;9.05;5.07;;;;;;;2.57;83.98;99780.69;5091419;28;20055;-63
2021/09/18 03:20:48;;;;;;;9.10;5.55;;;;;;;2.61;83.31;99788.00;5091461;28;20043;-62
2021/09/18 03:23:14;;;;;;;8.27;4.80;;;;;;;2.65;83.05;99788.47;5091141;28;20059;-62
2021/09/18 03:25:42;;;;;;;9.88;5.25;;;;;;;2.70;83.20;99786.13;5091314;28;20042;-63
2021/09/18 03:28:09;;;;;;;11.88;4.68;;;;;;;2.78;82.95;99780.81;5091017;28;20135;-62
2021/09/18 03:30:35;;;;;;;9.57;5.20;;;;;;;2.88;82.90;99781.41;5072930;28;20486;-61
2021/09/18 03:33:01;;;;;;;8.25;4.68;;;;;;;3.02;82.73;99795.50;5090864;28;20524;-64
2021/09/18 03:35:26;;;;;;;10.70;4.93;;;;;;;3.05;81.36;99783.84;5090650;28;20127;-62
2021/09/18 03:37:52;;;;;;;12.13;5.45;;;;;;;3.15;80.77;99787.03;5090798;28;20056;-63
2021/09/18 03:40:18;;;;;;;8.43;5.40;;;;;;;3.19;81.10;99790.91;5089836;28;20062;-64
2021/09/18 03:42:44;;;;;;;9.48;4.97;;;;;;;3.23;80.44;99786.94;5072815;28;20044;-61
2021/09/18 03:45:10;;;;;;;7.35;4.85;;;;;;;3.31;79.64;99792.09;5056182;28;20123;-62
2021/09/18 03:47:36;;;;;;;11.57;5.07;;;;;;;3.40;79.51;99798.06;5090825;28;20048;-62
2021/09/18 03:50:03;;;;;;;7.82;4.80;;;;;;;3.49;79.08;99798.78;5089640;28;20550;-62
2021/09/18 03:52:28;;;;;;;11.23;4.78;;;;;;;3.54;78.80;99799.88;5089763;28;20041;-64
2021/09/18 03:54:55;;;;;;;7.95;4.18;;;;;;;3.69;78.66;99794.63;5089536;28;20504;-61
2021/09/18 03:57:21;;;;;;;10.90;5.13;;;;;;;3.79;77.36;99803.00;5072571;28;20060;-63
2021/09/18 03:59:47;;;;;;;11.18;5.22;;;;;;;3.91;76.99;99805.97;5091738;28;20438;-62
2021/09/18 04:02:13;;;;;;;9.63;5.10;;;;;;;4.03;76.58;99803.69;5092860;28;20140;-62
2021/09/18 04:04:39;;;;;;;8.25;5.32;;;;;;;4.15;76.12;99799.63;5094382;28;20101;-64
2021/09/18 04:07:04;;;;;;;10.43;6.13;;;;;;;4.20;75.94;99804.28;5094121;28;20535;-62
2021/09/18 04:09:30;;;;;;;8.85;5.45;;;;;;;4.39;75.26;99810.75;5092876;28;20174;-62
2021/09/18 04:11:56;;;;;;;7.10;4.47;;;;;;;4.58;74.86;99806.69;5094109;28;20522;-62
2021/09/18 04:14:22;;;;;;;8.68;4.75;;;;;;;4.72;74.43;99806.63;5094108;28;20051;-62
2021/09/18 04:16:48;;;;;;;8.90;4.45;;;;;;;4.83;73.98;99813.19;5075853;28;20048;-63
2021/09/18 04:19:14;;;;;;;7.50;4.82;;;;;;;4.94;73.48;99810.03;5094199;28;20039;-63
2021/09/18 04:21:39;;;;;;;9.93;4.78;;;;;;;4.93;74.01;99811.03;5092953;28;20055;-64
2021/09/18 04:24:05;;;;;;;14.23;4.25;;;;;;;4.96;73.85;99820.34;5075769;28;20048;-62
2021/09/18 04:26:32;;;;;;;6.65;4.32;;;;;;;4.94;74.02;99817.09;5092921;28;20032;-63
2021/09/18 04:28:58;;;;;;;8.63;3.67;;;;;;;4.86;73.63;99825.13;5092638;28;20537;-62
2021/09/18 04:31:24;;;;;;;6.95;4.00;;;;;;;4.71;74.63;99831.25;5094276;28;20465;-63
2021/09/18 04:33:50;;;;;;;6.13;3.72;;;;;;;4.66;75.41;99827.56;5075440;28;20140;-61
2021/09/18 04:36:16;;;;;;;7.03;4.13;;;;;;;4.64;75.24;99830.38;5092212;28;20197;-62
2021/09/18 04:38:42;;;;;;;8.85;3.65;;;;;;;4.64;75.77;99825.13;5075507;28;20052;-62
2021/09/18 04:41:08;;;;;;;8.15;4.20;;;;;;;4.69;75.98;99832.44;5094004;28;20397;-62
2021/09/18 04:43:34;;;;;;;8.57;4.53;;;;;;;4.77;76.38;99821.81;5092289;28;20390;-63
2021/09/18 04:46:00;;;;;;;11.15;4.20;;;;;;;4.78;75.29;99823.44;5075751;28;20089;-63
2021/09/18 04:48:26;;;;;;;10.65;4.00;;;;;;;4.77;74.73;99825.25;5092493;28;20493;-63
2021/09/18 04:50:52;;;;;;;7.05;4.22;;;;;;;4.73;75.71;99829.25;5090760;28;20043;-63
2021/09/18 04:53:17;;;;;;;6.78;3.92;;;;;;;4.74;75.65;99823.00;5075000;28;20483;-63
2021/09/18 04:55:43;;;;;;;7.55;3.75;;;;;;;4.69;75.83;99825.38;5092057;28;20032;-63
2021/09/18 04:58:09;;;;;;;5.72;3.40;;;;;;;4.72;74.90;99818.94;5093297;28;20040;-63
2021/09/18 05:00:35;;;;;;;8.18;4.28;;;;;;;4.67;75.63;99819.50;5093462;28;20406;-62
2021/09/18 05:03:01;;;;;;;7.35;3.72;;;;;;;4.72;75.89;99824.19;5075052;28;20051;-63
2021/09/18 05:05:27;;;;;;;7.45;3.92;;;;;;;4.77;76.23;99824.44;5093314;28;20044;-63
2021/09/18 05:07:54;;;;;;;7.43;3.47;;;;;;;4.74;75.96;99828.25;5093268;28;20043;-65
2021/09/18 05:10:20;;;;;;;5.47;3.80;;;;;;;4.75;75.86;99818.56;5091638;28;20113;-61
2021/09/18 05:12:45;;;;;;;7.93;4.00;;;;;;;4.79;75.62;99825.06;5091697;28;20086;-63
2021/09/18 05:15:12;;;;;;;9.00;4.35;;;;;;;4.88;75.38;99833.63;5091961;28;20048;-63
2021/09/18 05:17:37;;;;;;;8.32;3.80;;;;;;;4.90;75.83;99827.19;5092492;28;20083;-62
2021/09/18 05:20:05;;;;;;;8.80;3.92;;;;;;;4.93;75.88;99820.72;5093096;28;20068;-61
2021/09/18 05:22:30;;;;;;;5.70;3.40;;;;;;;4.93;74.98;99828.63;5092943;28;20048;-62
2021/09/18 05:24:56;;;;;;;11.85;3.83;;;;;;;4.93;75.81;99823.34;5092754;28;20039;-63
2021/09/18 05:27:22;;;;;;;5.78;3.63;;;;;;;4.95;75.07;99831.88;5092659;28;20127;-63
2021/09/18 05:29:47;;;;;;;6.85;3.22;;;;;;;4.98;75.96;99831.50;5091462;28;20444;-63
2021/09/18 05:32:14;;;;;;;8.18;4.10;;;;;;;5.02;75.16;99827.47;5092870;28;20047;-63
2021/09/18 05:34:40;;;;;;;7.82;3.80;;;;;;;5.09;74.40;99830.13;5092326;28;20066;-62
2021/09/18 05:37:06;;;;;;;7.85;4.10;;;;;;;5.07;74.36;99822.47;5092613;28;20142;-62
2021/09/18 05:39:32;;;;;;;6.85;3.67;;;;;;;5.17;75.26;99830.00;5091421;28;20119;-62
2021/09/18 05:41:58;;;;;;;9.88;3.63;;;;;;;5.33;74.03;99831.56;5092403;28;20048;-62
2021/09/18 05:44:24;;;;;;;10.18;3.65;;;;;;;5.45;73.90;99828.19;5074295;28;20043;-63
2021/09/18 05:46:50;;;;;;;7.35;3.88;;;;;;;5.51;73.51;99836.31;5092315;28;20044;-63
2021/09/18 05:49:15;;;;;;;4.90;3.30;;;;;;;5.49;74.10;99836.50;5092493;28;20126;-63
2021/09/18 05:51:41;;;;;;;7.22;3.92;;;;;;;5.57;72.91;99838.16;5092601;28;20050;-64
2021/09/18 05:54:07;;;;;;;6.25;4.00;;;;;;;5.62;73.02;99847.09;5090892;28;20141;-62
2021/09/18 05:56:33;;;;;;;6.90;3.78;;;;;;;5.70;72.14;99849.56;5090946;28;20139;-61
2021/09/18 05:59:03;;;;;;;9.43;4.00;;;;;;;5.75;72.87;99850.81;5090829;28;20079;-62
2021/09/18 06:01:30;;;;;;;9.20;4.38;;;;;;;5.81;72.50;99845.56;5090991;28;20050;-62
2021/09/18 06:03:55;;;;;;;7.10;3.55;;;;;;;5.88;72.02;99856.13;5090584;28;20135;-63
2021/09/18 06:06:21;;;;;;;10.57;4.00;;;;;;;5.90;73.02;99852.28;5092357;28;20064;-64
2021/09/18 06:08:47;;;;;;;6.95;4.10;;;;;;;6.03;72.63;99850.75;5090693;28;20482;-63
2021/09/18 06:11:13;;;;;;;6.38;3.80;;;;;;;6.07;71.36;99850.19;5091734;28;20543;-64
2021/09/18 06:13:39;;;;;;;8.32;3.60;;;;;;;6.04;70.55;99852.41;5091739;28;20048;-63
2021/09/18 06:16:05;;;;;;;8.68;3.05;;;;;;;6.06;70.71;99850.34;5073691;28;20097;-63
2021/09/18 06:18:31;;;;;;;8.45;3.65;;;;;;;6.08;70.55;99854.44;5091750;28;20044;-60
2021/09/18 06:20:59;;;;;;;7.78;3.42;;;;;;;6.13;70.30;99852.03;5091535;28;20853;-62
2021/09/18 06:23:29;;;;;;;5.50;3.10;;;;;;;6.19;69.83;99842.53;5110197;28;20046;-62
2021/09/18 06:25:54;;;;;;;5.28;2.95;;;;;;;6.19;69.33;99845.16;5105204;28;20067;-61
2021/09/18 06:28:20;;;;;;;9.30;3.65;;;;;;;6.25;68.91;99849.63;5091150;28;20082;-61
2021/09/18 06:30:46;;;;;;;4.90;3.10;;;;;;;6.22;69.37;99843.97;5091709;28;20124;-59
2021/09/18 06:33:12;;;;;;;7.00;3.60;;;;;;;6.38;68.79;99846.22;5091776;28;20117;-61
2021/09/18 06:35:38;;;;;;;17.27;3.33;;;;;;;6.46;68.63;99848.69;5091176;28;20051;-60
2021/09/18 06:38:04;;;;;;;11.25;3.33;;;;;;;6.52;67.30;99847.06;5090181;28;20496;-60
2021/09/18 06:40:30;;;;;;;7.25;3.05;;;;;;;6.57;68.09;99850.72;5090367;28;20093;-60
2021/09/18 06:42:55;;;;;;;4.57;2.92;;;;;;;6.61;67.53;99848.50;5073483;28;20083;-60
2021/09/18 06:45:21;;;;;;;5.63;2.90;;;;;;;6.68;67.01;99851.16;5090437;28;20032;-60
2021/09/18 06:47:48;;;;;;;11.50;3.35;;;;;;;6.76;66.25;99848.31;5091115;28;20131;-61
2021/09/18 06:50:14;;;;;;;5.18;2.72;;;;;;;6.89;66.39;99848.34;5091313;28;20104;-60
2021/09/18 06:52:40;;;;;;;6.50;2.92;;;;;;;7.00;66.61;99850.38;5091354;28;20044;-60
2021/09/18 06:55:06;;;;;;;5.28;2.55;;;;;;;7.03;65.03;99849.19;5091467;28;20507;-62
2021/09/18 06:57:34;;;;;;;5.55;3.35;;;;;;;7.09;64.80;99858.06;5091413;28;20052;-61
2021/09/18 07:00:02;;;;;;;6.82;3.40;;;;;;;7.18;64.52;99846.34;5091433;28;20130;-61
2021/09/18 07:02:27;;;;;;;3.78;2.72;;;;;;;7.20;64.61;99852.19;5073139;28;20089;-60
2021/09/18 07:04:53;;;;;;;3.97;2.60;;;;;;;7.22;64.17;99858.09;5091294;28;20064;-62
2021/09/18 07:07:19;;;;;;;7.97;4.57;;;;;;;7.34;64.06;99850.38;5091204;28;20047;-62
2021/09/18 07:09:45;;;;;;;9.52;3.30;;;;;;;7.47;63.61;99851.16;5091190;28;20043;-60
2021/09/18 07:12:10;;;;;;;6.50;2.83;;;;;;;7.52;62.42;99855.81;5090027;28;20453;-60
2021/09/18 07:14:36;;;;;;;3.75;2.40;;;;;;;7.48;62.28;99849.34;5072969;28;21903;-61
2021/09/18 07:17:02;;;;;;;4.78;2.40;;;;;;;7.52;62.20;99845.25;5090873;28;20044;-62
2021/09/18 07:19:28;;;;;;;6.15;2.40;;;;;;;7.65;61.26;99845.25;5086551;28;20032;-62
2021/09/18 07:21:54;;;;;;;4.80;2.70;;;;;;;7.87;60.96;99855.53;5072916;28;20076;-62
2021/09/18 07:24:19;;;;;;;3.60;2.47;;;;;;;7.89;59.79;99858.78;5074001;28;20119;-61
2021/09/18 07:26:45;;;;;;;5.50;3.17;;;;;;;8.01;59.80;99856.28;5070736;28;20047;-61
2021/09/18 07:29:11;;;;;;;6.70;2.65;;;;;;;8.08;59.12;99849.97;5069555;28;20126;-61
2021/09/18 07:31:37;;;;;;;4.55;2.22;;;;;;;8.17;58.85;99847.88;5071222;28;20048;-60
2021/09/18 07:34:03;;;;;;;3.17;1.85;;;;;;;8.13;58.98;99846.69;5070896;28;20051;-60
2021/09/18 07:36:28;;;;;;;3.70;1.88;;;;;;;8.16;58.83;99851.56;5072548;28;20168;-60
2021/09/18 07:38:54;;;;;;;5.25;2.30;;;;;;;8.06;59.12;99856.47;5073037;28;20055;-62
2021/09/18 07:41:20;;;;;;;2.13;1.67;;;;;;;8.03;59.02;99836.59;5074468;28;20170;-62
2021/09/18 07:43:46;;;;;;;3.63;1.80;;;;;;;7.95;59.73;99842.91;5073745;28;20040;-61
2021/09/18 07:46:11;;;;;;;3.10;2.03;;;;;;;7.88;59.07;99842.13;5073001;28;20044;-62
2021/09/18 07:48:37;;;;;;;2.97;1.98;;;;;;;7.93;58.99;99850.22;5074433;28;20143;-60
2021/09/18 07:51:04;;;;;;;2.85;1.90;;;;;;;8.03;58.46;99849.78;5094858;28;20043;-59
2021/09/18 07:53:29;;;;;;;6.90;2.00;;;;;;;8.20;58.16;99847.47;5093578;28;20043;-59
2021/09/18 07:55:55;;;;;;;4.13;1.90;;;;;;;8.29;57.11;99842.75;5094830;28;20032;-60
2021/09/18 07:58:21;;;;;;;3.30;2.50;;;;;;;8.43;57.27;99849.63;5094051;28;20066;-59
2021/09/18 08:00:47;;;;;;;6.47;2.63;;;;;;;8.77;56.38;99840.47;5093170;28;20051;-60
2021/09/18 08:03:18;;;;;;;3.72;2.58;;;;;;;9.02;55.34;99844.97;5092784;28;20052;-59
2021/09/18 08:05:43;;;;;;;3.15;2.40;;;;;;;9.24;54.33;99840.09;5094570;28;20065;-59
2021/09/18 08:08:10;;;;;;;9.73;2.30;;;;;;;9.32;53.82;99837.16;5094349;28;20073;-60
2021/09/18 08:10:35;;;;;;;4.47;1.88;;;;;;;9.36;52.82;99835.72;5094534;28;20097;-60
2021/09/18 08:13:02;;;;;;;4.25;2.10;;;;;;;9.49;53.14;99835.56;5094407;28;20405;-59
2021/09/18 08:15:28;;;;;;;4.18;1.90;;;;;;;9.60;53.25;99834.03;5094400;28;20048;-60
2021/09/18 08:17:53;;;;;;;3.15;2.60;;;;;;;9.62;54.19;99831.16;5093969;28;20109;-60
2021/09/18 08:20:20;;;;;;;4.07;1.70;;;;;;;9.68;52.95;99839.06;5094175;28;20040;-62
2021/09/18 08:22:47;;;;;;;2.13;1.60;;;;;;;9.64;53.17;99834.41;5093872;28;20051;-61
2021/09/18 08:25:13;;;;;;;3.30;2.22;;;;;;;9.51;53.61;99841.47;5094144;28;20097;-59
2021/09/18 08:27:39;;;;;;;2.85;1.70;;;;;;;9.45;52.91;99852.94;5093976;28;20055;-61
2021/09/18 08:30:06;;;;;;;2.55;1.80;;;;;;;9.36;53.67;99842.84;5093814;28;20036;-60
2021/09/18 08:32:32;;;;;;;2.22;1.65;;;;;;;9.46;52.79;99851.88;5092531;28;20097;-60
2021/09/18 08:34:58;;;;;;;2.10;1.67;;;;;;;9.49;53.41;99855.94;5093813;28;20060;-61
2021/09/18 08:37:24;;;;;;;2.65;1.42;;;;;;;9.39;52.87;99853.81;5093737;28;20055;-59
2021/09/18 08:39:49;;;;;;;1.90;1.67;;;;;;;9.19;52.66;99842.59;5093634;28;20036;-61
2021/09/18 08:42:16;;;;;;;4.13;1.83;;;;;;;9.17;53.29;99839.34;5093864;28;20079;-60
2021/09/18 08:44:42;;;;;;;2.63;1.50;;;;;;;9.20;52.90;99841.56;5093579;28;20079;-58
2021/09/18 08:47:08;;;;;;;2.40;1.95;;;;;;;9.40;53.25;99844.03;5093043;28;20044;-59
2021/09/18 08:49:34;;;;;;;3.55;1.85;;;;;;;9.40;53.26;99841.38;5092146;28;20130;-59
2021/09/18 08:52:00;;;;;;;3.10;1.95;;;;;;;9.16;52.98;99840.38;5092123;28;20138;-60
2021/09/18 08:54:26;;;;;;;2.28;1.60;;;;;;;9.07;53.78;99831.91;5091975;28;20055;-59
2021/09/18 08:56:52;;;;;;;2.80;1.90;;;;;;;8.94;54.76;99834.63;5092105;28;20048;-59
2021/09/18 08:59:18;;;;;;;2.38;1.83;;;;;;;8.81;54.42;99831.06;5093247;28;20040;-61
2021/09/18 09:01:44;;;;;;;4.90;2.80;;;;;;;8.80;54.50;99836.59;5093386;28;20044;-65
2021/09/18 09:04:10;;;;;;;3.42;2.45;;;;;;;8.89;54.55;99832.66;5093342;28;20089;-68
2021/09/18 09:06:54;;;;;;;2.72;2.15;;;;;;;8.89;54.00;99831.84;5075280;28;20465;-66
2021/09/18 09:09:20;;;;;;;2.22;2.03;;;;;;;8.79;54.69;99840.25;5091999;28;20044;-65
2021/09/18 09:11:53;;;;;;;7.15;3.45;;;;;;;8.80;54.94;99849.81;5091938;28;20040;-61
2021/09/18 09:14:19;;;;;;;2.08;1.70;;;;;;;8.87;54.15;99843.44;5091769;28;20040;-60
2021/09/18 09:16:57;;;;;;;4.00;1.67;;;;;;;8.78;53.75;99847.38;5093017;28;20055;-59
2021/09/18 09:19:25;;;;;;;3.67;2.60;;;;;;;8.89;53.64;99845.06;5093035;28;20063;-59
2021/09/18 09:21:54;;;;;;;2.75;1.90;;;;;;;9.15;53.45;99846.66;5057835;28;20050;-61
2021/09/18 09:24:24;;;;;;;3.45;2.00;;;;;;;9.44;52.95;99834.59;5093032;28;20036;-60
2021/09/18 09:27:11;;;;;;;3.65;1.77;;;;;;;9.60;52.57;99835.88;5092807;28;20501;-61
2021/09/18 09:29:53;;;;;;;3.53;2.00;;;;;;;9.65;51.55;99844.00;5092845;28;20040;-61
2021/09/18 09:32:37;;;;;;;2.40;1.90;;;;;;;9.64;51.41;99835.22;5092712;28;20101;-60
2021/09/18 09:35:13;;;;;;;2.83;1.90;;;;;;;9.67;51.07;99829.47;5092669;28;20433;-60
2021/09/18 09:37:40;;;;;;;2.22;1.63;;;;;;;9.77;51.00;99819.19;5092460;28;20048;-60
2021/09/18 09:40:08;;;;;;;3.10;2.28;;;;;;;9.92;50.98;99828.59;5092285;28;20507;-59
2021/09/18 09:42:41;;;;;;;2.33;1.73;;;;;;;9.98;52.71;99835.66;5092389;28;20075;-61
2021/09/18 09:45:10;;;;;;;1.90;1.67;;;;;;;9.99;53.29;99846.03;5092609;28;20093;-59
2021/09/18 09:47:36;;;;;;;5.82;1.58;;;;;;;9.85;52.71;99846.41;5092558;28;20143;-60
2021/09/18 09:50:03;;;;;;;2.65;1.58;;;;;;;9.65;53.73;99836.84;5092043;28;20127;-61
2021/09/18 09:52:32;;;;;;;2.97;2.00;;;;;;;9.56;54.06;99830.22;5090584;28;20039;-60
2021/09/18 09:55:07;;;;;;;2.05;1.77;;;;;;;9.62;53.50;99836.47;5092261;28;20076;-60
2021/09/18 09:57:33;;;;;;;3.83;2.30;;;;;;;9.65;52.50;99823.63;5091149;28;20055;-61
2021/09/18 10:00:02;;;;;;;2.63;1.85;;;;;;;9.55;53.92;99845.28;5090403;28;20036;-61
2021/09/18 10:02:31;;;;;;;2.65;1.75;;;;;;;9.45;54.33;99836.25;5092086;28;20066;-60
2021/09/18 10:04:56;;;;;;;4.57;2.17;;;;;;;9.44;55.08;99835.44;5090561;28;20598;-61
2021/09/18 10:07:22;;;;;;;3.25;1.80;;;;;;;9.35;54.02;99839.38;5091786;28;20047;-60
2021/09/18 10:09:48;;;;;;;2.38;1.80;;;;;;;9.16;54.77;99832.44;5091815;28;20135;-60
2021/09/18 10:12:15;;;;;;;3.28;2.05;;;;;;;9.19;54.59;99827.53;5091733;28;20130;-61
2021/09/18 10:14:49;;;;;;;6.20;2.33;;;;;;;9.42;54.81;99837.50;5091778;28;20048;-59
2021/09/18 10:17:16;;;;;;;9.18;3.35;;;;;;;9.46;53.45;99843.16;5091790;28;20044;-60
2021/09/18 10:19:56;;;;;;;9.20;3.72;;;;;;;9.41;53.94;99845.63;5091880;28;20131;-59
2021/09/18 10:25:25;;;;;;;3.97;1.60;;;;;;;9.21;53.78;99851.94;5092008;28;20085;-61
2021/09/18 10:28:10;;;;;;;2.83;1.70;;;;;;;9.23;55.03;99844.56;5091931;28;20108;-61
2021/09/18 10:30:44;;;;;;;3.20;2.15;;;;;;;9.28;54.91;99838.63;5092021;28;20036;-60
2021/09/18 10:33:37;;;;;;;3.83;2.40;;;;;;;9.64;53.70;99829.91;5090287;28;20139;-60
2021/09/18 10:36:05;;;;;;;4.45;2.25;;;;;;;9.75;53.09;99842.44;5091331;28;20051;-60
2021/09/18 10:38:34;;;;;;;1.77;1.65;;;;;;;9.77;53.05;99843.03;5091467;28;20052;-59
2021/09/18 10:41:12;;;;;;;3.13;2.03;;;;;;;9.83;53.21;99840.53;5091857;28;20040;-59
2021/09/18 10:43:44;;;;;;;2.90;1.92;;;;;;;9.78;52.97;99844.63;5090077;28;20070;-59
2021/09/18 10:46:13;;;;;;;4.00;2.45;;;;;;;9.84;53.00;99845.59;5091773;28;20447;-60
2021/09/18 10:48:45;;;;;;;2.92;2.15;;;;;;;9.76;53.38;99848.53;5089907;28;20036;-59
2021/09/18 10:51:34;;;;;;;3.60;2.28;;;;;;;9.84;53.79;99855.38;5091776;28;20188;-60
2021/09/18 10:54:14;;;;;;;2.25;1.88;;;;;;;9.46;54.64;99853.72;5109168;27;20391;-60
2021/09/18 10:57:06;;;;;;;4.05;2.28;;;;;;;9.36;55.56;99842.84;5068665;28;20410;-61
2021/09/18 10:59:49;;;;;;;3.72;2.45;;;;;;;9.28;55.15;99855.31;5109111;27;20376;-61
2021/09/18 11:02:34;;;;;;;3.50;2.40;;;;;;;9.27;54.28;99850.25;5109200;27;20444;-61
2021/09/18 11:05:20;;;;;;;2.97;2.22;;;;;;;9.39;55.35;99839.75;5109291;27;20753;-61
2021/09/18 11:08:05;;;;;;;2.80;2.50;;;;;;;9.46;54.93;99849.25;5109237;27;20384;-60
2021/09/18 11:10:45;;;;;;;6.15;2.75;;;;;;;9.61;54.15;99851.53;5109219;27;20391;-61
2021/09/18 11:13:24;;;;;;;5.63;2.80;;;;;;;9.40;53.63;99834.25;5109151;27;20395;-60
2021/09/18 11:16:05;;;;;;;6.10;2.30;;;;;;;9.28;54.16;99838.63;5109369;27;20384;-60
2021/09/18 11:18:46;;;;;;;4.30;2.17;;;;;;;9.27;54.66;99843.13;5109173;27;20388;-60
2021/09/18 11:21:43;;;;;;;4.78;2.80;;;;;;;9.32;54.60;99837.16;5109247;27;20392;-60
2021/09/18 11:24:24;;;;;;;3.38;2.30;;;;;;;9.45;55.10;99858.22;5109338;27;20120;-60
2021/09/18 11:27:01;;;;;;;5.70;2.80;;;;;;;9.46;54.94;99851.09;5103671;27;1380411;-60
2021/09/18 11:29:51;;;;;;;5.30;2.58;;;;;;;9.58;54.68;99837.94;5108769;27;20201;-60
2021/09/18 11:32:32;;;;;;;3.53;2.55;;;;;;;9.47;54.10;99839.47;5108292;27;20132;-60
2021/09/18 11:35:10;;;;;;;4.65;1.98;;;;;;;9.33;55.20;99844.91;5109108;27;20384;-60
2021/09/18 11:37:46;;;;;;;5.25;2.63;;;;;;;9.39;55.13;99853.00;5109189;27;20124;-59
2021/09/18 11:40:26;;;;;;;6.13;2.80;;;;;;;9.44;55.21;99838.09;5109258;27;20483;-59
2021/09/18 11:43:03;;;;;;;5.05;2.70;;;;;;;9.52;55.18;99848.38;5088908;28;20413;-60
2021/09/18 11:45:39;;;;;;;3.78;2.55;;;;;;;9.58;55.04;99854.63;5109187;27;20144;-60
2021/09/18 11:48:21;;;;;;;2.80;2.13;;;;;;;9.62;54.35;99839.94;5109123;27;20132;-60